createdAt,value
2023-03-12T18:44:21.510Z,986.03
2023-03-12T18:45:22.510Z,986.03
2023-03-12T18:46:22.616Z,986.02
2023-03-12T18:47:22.627Z,985.99
2023-03-12T18:48:22.679Z,986.00
2023-03-12T18:49:22.738Z,986.01
2023-03-12T18:50:22.799Z,986.03
2023-03-12T18:51:22.833Z,986.06
2023-03-12T18:52:22.862Z,986.08
2023-03-12T18:53:22.890Z,986.04
2023-03-12T18:54:24.609Z,986.07
2023-03-12T18:55:22.971Z,986.07
2023-03-12T18:56:23.007Z,986.06
2023-03-12T18:57:23.087Z,986.08
2023-03-12T18:58:23.057Z,986.09
2023-03-12T18:59:23.094Z,986.06
2023-03-12T19:00:23.124Z,986.13
2023-03-12T19:01:23.186Z,986.11
2023-03-12T19:02:23.177Z,986.14
2023-03-12T19:03:23.319Z,986.15
2023-03-12T19:04:23.247Z,986.20
2023-03-12T19:05:23.229Z,986.17
2023-03-12T19:06:23.259Z,986.20
2023-03-12T19:07:23.255Z,986.13
2023-03-12T19:08:23.270Z,986.16
2023-03-12T19:09:23.260Z,986.11
2023-03-12T19:10:23.311Z,986.09
2023-03-12T19:11:23.283Z,986.08
2023-03-12T19:12:23.309Z,986.07
2023-03-12T19:13:23.300Z,986.06
2023-03-12T19:14:23.449Z,986.10
2023-03-12T19:15:23.350Z,986.09
2023-03-12T19:16:23.481Z,986.13
2023-03-12T19:17:23.435Z,986.15
2023-03-12T19:18:23.433Z,986.18
2023-03-12T19:19:23.948Z,986.19
2023-03-12T19:20:23.473Z,986.22
2023-03-12T19:21:23.508Z,986.23
2023-03-12T19:22:23.551Z,986.23
2023-03-12T19:23:23.535Z,986.25
2023-03-12T19:24:23.559Z,986.23
2023-03-12T19:25:23.559Z,986.21
2023-03-12T19:26:23.586Z,986.18
2023-03-12T19:27:23.617Z,986.15
2023-03-12T19:28:23.636Z,986.19
2023-03-12T19:29:23.644Z,986.20
2023-03-12T19:30:23.685Z,986.23
2023-03-12T19:31:23.769Z,986.21
2023-03-12T19:32:27.729Z,986.21
2023-03-12T19:33:23.778Z,986.22
2023-03-12T19:34:23.782Z,986.25
2023-03-12T19:35:23.861Z,986.27
2023-03-12T19:36:23.829Z,986.25
2023-03-12T19:37:23.873Z,986.21
2023-03-12T19:38:23.848Z,986.20
2023-03-12T19:39:23.844Z,986.18
2023-03-12T19:40:23.879Z,986.20
2023-03-12T19:41:23.899Z,986.23
2023-03-12T19:42:23.961Z,986.24
2023-03-12T19:43:23.948Z,986.23
2023-03-12T19:44:23.988Z,986.33
2023-03-12T19:45:24.042Z,986.28
2023-03-12T19:46:24.005Z,986.29
2023-03-12T19:47:24.040Z,986.33
2023-03-12T19:48:23.986Z,986.33
2023-03-12T19:49:23.990Z,986.37
2023-03-12T19:50:24.059Z,986.34
2023-03-12T19:51:24.015Z,986.41
2023-03-12T19:52:24.008Z,986.41
2023-03-12T19:53:24.020Z,986.42
2023-03-12T19:54:24.017Z,986.41
2023-03-12T19:55:24.011Z,986.39
2023-03-12T19:56:24.003Z,986.44
2023-03-12T19:57:24.028Z,986.42
2023-03-12T19:58:24.026Z,986.41
2023-03-12T19:59:24.013Z,986.39
2023-03-12T20:00:24.042Z,986.39
2023-03-12T20:01:24.045Z,986.38
2023-03-12T20:02:24.222Z,986.38
2023-03-12T20:03:24.064Z,986.37
2023-03-12T20:04:24.066Z,986.39
2023-03-12T20:05:24.087Z,986.38
2023-03-12T20:06:24.112Z,986.43
2023-03-12T20:07:24.136Z,986.46
2023-03-12T20:08:24.128Z,986.43
2023-03-12T20:09:24.123Z,986.43
2023-03-12T20:10:24.186Z,986.39
2023-03-12T20:11:24.164Z,986.46
2023-03-12T20:12:24.168Z,986.43
2023-03-12T20:13:24.170Z,986.46
2023-03-12T20:14:24.132Z,986.45
2023-03-12T20:15:24.161Z,986.46
2023-03-12T20:16:24.191Z,986.43
2023-03-12T20:17:24.155Z,986.43
2023-03-12T20:18:24.140Z,986.45
2023-03-12T20:19:24.175Z,986.45
2023-03-12T20:20:24.195Z,986.49
2023-03-12T20:21:24.172Z,986.46
2023-03-12T20:22:24.226Z,986.48
2023-03-12T20:23:24.216Z,986.54
2023-03-12T20:24:24.281Z,986.48
2023-03-12T20:25:24.267Z,986.51
2023-03-12T20:26:24.272Z,986.50
2023-03-12T20:27:24.308Z,986.51
2023-03-12T20:28:24.245Z,986.48
2023-03-12T20:29:24.282Z,986.51
2023-03-12T20:30:24.267Z,986.45
2023-03-12T20:31:24.361Z,986.45
2023-03-12T20:32:24.258Z,986.47
2023-03-12T20:33:24.260Z,986.46
2023-03-12T20:34:24.256Z,986.47
2023-03-12T20:35:24.286Z,986.46
2023-03-12T20:36:24.370Z,986.45
2023-03-12T20:37:24.292Z,986.58
2023-03-12T20:38:24.292Z,986.55
2023-03-12T20:39:24.270Z,986.54
2023-03-12T20:40:24.333Z,986.52
2023-03-12T20:41:24.316Z,986.45
2023-03-12T20:42:24.394Z,986.44
2023-03-12T20:43:24.369Z,986.42
2023-03-12T20:44:24.369Z,986.44
2023-03-12T20:45:24.404Z,986.49
2023-03-12T20:46:24.525Z,986.49
2023-03-12T20:47:24.432Z,986.45
2023-03-12T20:48:24.389Z,986.43
2023-03-12T20:49:24.428Z,986.37
2023-03-12T20:50:24.430Z,986.35
2023-03-12T20:51:24.449Z,986.39
2023-03-12T20:52:24.452Z,986.37
2023-03-12T20:53:24.449Z,986.33
2023-03-12T20:54:24.470Z,986.29
2023-03-12T20:55:24.497Z,986.39
2023-03-12T20:56:24.507Z,986.25
2023-03-12T20:57:24.522Z,986.28
2023-03-12T20:58:24.499Z,986.31
2023-03-12T20:59:24.525Z,986.28
2023-03-12T21:00:24.550Z,986.29
2023-03-12T21:01:24.663Z,986.37
2023-03-12T21:02:24.674Z,986.26
2023-03-12T21:03:24.571Z,986.28
2023-03-12T21:04:24.609Z,986.12
2023-03-12T21:05:25.117Z,986.16
2023-03-12T21:06:24.554Z,986.18
2023-03-12T21:07:24.589Z,986.17
2023-03-12T21:08:24.579Z,986.14
2023-03-12T21:09:24.529Z,986.15
2023-03-12T21:10:24.534Z,986.11
2023-03-12T21:11:24.558Z,986.09
2023-03-12T21:12:24.751Z,986.11
2023-03-12T21:13:24.578Z,986.12
2023-03-12T21:14:24.578Z,986.13
2023-03-12T21:15:24.572Z,986.11
2023-03-12T21:16:24.642Z,986.09
2023-03-12T21:17:24.923Z,986.05
2023-03-12T21:18:24.597Z,986.04
2023-03-12T21:19:24.613Z,986.06
2023-03-12T21:20:24.613Z,986.06
2023-03-12T21:21:24.636Z,986.06
2023-03-12T21:22:24.689Z,986.06
2023-03-12T21:23:24.740Z,986.05
2023-03-12T21:24:24.726Z,986.10
2023-03-12T21:25:24.701Z,986.13
2023-03-12T21:26:24.734Z,986.13
2023-03-12T21:27:24.794Z,986.16
2023-03-12T21:28:24.729Z,986.18
2023-03-12T21:29:24.716Z,986.20
2023-03-12T21:30:24.734Z,986.27
2023-03-12T21:31:24.784Z,986.24
2023-03-12T21:32:24.866Z,986.26
2023-03-12T21:33:24.784Z,986.31
2023-03-12T21:34:24.825Z,986.26
2023-03-12T21:35:24.859Z,986.25
2023-03-12T21:36:24.832Z,986.26
2023-03-12T21:37:24.828Z,986.27
2023-03-12T21:38:24.854Z,986.25
2023-03-12T21:39:24.823Z,986.20
2023-03-12T21:40:24.809Z,986.14
2023-03-12T21:41:24.819Z,986.08
2023-03-12T21:42:24.875Z,986.08
2023-03-12T21:43:24.865Z,986.02
2023-03-12T21:44:24.884Z,986.05
2023-03-12T21:45:24.872Z,986.09
2023-03-12T21:46:25.122Z,986.09
2023-03-12T21:47:24.920Z,985.97
2023-03-12T21:48:24.915Z,986.00
2023-03-12T21:49:25.013Z,986.00
2023-03-12T21:50:24.972Z,985.98
2023-03-12T21:51:25.007Z,985.91
2023-03-12T21:52:25.027Z,985.90
2023-03-12T21:53:25.036Z,985.87
2023-03-12T21:54:25.045Z,985.86
2023-03-12T21:55:25.030Z,985.86
2023-03-12T21:56:25.085Z,985.83
2023-03-12T21:57:25.191Z,985.86
2023-03-12T21:58:25.099Z,985.89
2023-03-12T21:59:25.090Z,985.88
2023-03-12T22:00:25.115Z,985.88
2023-03-12T22:01:25.083Z,985.83
2023-03-12T22:02:27.539Z,985.83
2023-03-12T22:03:25.054Z,985.81
2023-03-12T22:04:25.112Z,985.81
2023-03-12T22:05:25.045Z,985.78
2023-03-12T22:06:25.056Z,985.85
2023-03-12T22:07:25.064Z,985.79
2023-03-12T22:08:25.064Z,985.73
2023-03-12T22:09:25.057Z,985.75
2023-03-12T22:10:25.118Z,985.73
2023-03-12T22:11:25.085Z,985.68
2023-03-12T22:12:25.113Z,985.65
2023-03-12T22:13:25.089Z,985.65
2023-03-12T22:14:25.108Z,985.63
2023-03-12T22:15:25.072Z,985.65
2023-03-12T22:16:25.109Z,985.59
2023-03-12T22:17:25.088Z,985.54
2023-03-12T22:18:25.112Z,985.49
2023-03-12T22:19:25.090Z,985.48
2023-03-12T22:20:25.074Z,985.43
2023-03-12T22:21:25.061Z,985.32
2023-03-12T22:22:25.131Z,985.34
2023-03-12T22:23:25.093Z,985.41
2023-03-12T22:24:25.115Z,985.44
2023-03-12T22:25:25.112Z,985.53
2023-03-12T22:26:25.120Z,985.58
2023-03-12T22:27:25.145Z,985.55
2023-03-12T22:28:25.918Z,985.54
2023-03-12T22:29:25.143Z,985.52
2023-03-12T22:30:25.145Z,985.46
2023-03-12T22:31:25.164Z,985.45
2023-03-12T22:32:25.183Z,985.45
2023-03-12T22:33:25.154Z,985.48
2023-03-12T22:34:25.193Z,985.50
2023-03-12T22:35:25.148Z,985.53
2023-03-12T22:36:25.162Z,985.47
2023-03-12T22:37:25.189Z,985.48
2023-03-12T22:38:25.230Z,985.44
2023-03-12T22:39:25.202Z,985.39
2023-03-12T22:40:25.234Z,985.42
2023-03-12T22:41:25.235Z,985.40
2023-03-12T22:42:25.232Z,985.36
2023-03-12T22:43:25.205Z,985.37
2023-03-12T22:44:25.217Z,985.35
2023-03-12T22:45:25.215Z,985.36
2023-03-12T22:46:25.282Z,985.30
2023-03-12T22:47:25.274Z,985.34
2023-03-12T22:48:25.248Z,985.31
2023-03-12T22:49:25.315Z,985.28
2023-03-12T22:50:25.324Z,985.37
2023-03-12T22:51:25.305Z,985.32
2023-03-12T22:52:25.334Z,985.28
2023-03-12T22:53:25.316Z,985.29
2023-03-12T22:54:25.348Z,985.25
2023-03-12T22:55:25.345Z,985.26
2023-03-12T22:56:25.391Z,985.23
2023-03-12T22:57:25.613Z,985.24
2023-03-12T22:58:25.394Z,985.22
2023-03-12T22:59:25.372Z,985.27
2023-03-12T23:00:25.402Z,985.23
2023-03-12T23:01:25.523Z,985.24
2023-03-12T23:02:25.466Z,985.18
2023-03-12T23:03:25.453Z,985.13
2023-03-12T23:04:25.510Z,985.13
2023-03-12T23:05:25.483Z,985.13
2023-03-12T23:06:25.498Z,985.09
2023-03-12T23:07:25.559Z,985.06
2023-03-12T23:08:25.559Z,985.02
2023-03-12T23:09:25.553Z,985.03
2023-03-12T23:10:25.545Z,985.08
2023-03-12T23:11:25.729Z,985.05
2023-03-12T23:12:25.574Z,985.00
2023-03-12T23:13:25.618Z,985.00
2023-03-12T23:14:25.596Z,984.93
2023-03-12T23:15:35.117Z,984.95
2023-03-12T23:16:25.729Z,984.95
2023-03-12T23:17:25.705Z,984.88
2023-03-12T23:18:25.656Z,984.92
2023-03-12T23:19:25.660Z,984.96
2023-03-12T23:20:25.658Z,984.80
2023-03-12T23:21:25.660Z,984.90
2023-03-12T23:22:25.691Z,984.89
2023-03-12T23:23:25.668Z,984.87
2023-03-12T23:24:25.709Z,984.83
2023-03-12T23:25:25.698Z,984.80
2023-03-12T23:26:25.697Z,984.79
2023-03-12T23:27:25.762Z,984.78
2023-03-12T23:28:25.731Z,984.76
2023-03-12T23:29:25.757Z,984.77
2023-03-12T23:30:25.729Z,984.74
2023-03-12T23:31:25.765Z,984.72
2023-03-12T23:32:25.850Z,984.76
2023-03-12T23:33:25.777Z,984.76
2023-03-12T23:34:25.770Z,984.80
2023-03-12T23:35:25.858Z,984.78
2023-03-12T23:36:25.807Z,984.77
2023-03-12T23:37:25.842Z,984.72
2023-03-12T23:38:25.826Z,984.67
2023-03-12T23:39:25.843Z,984.65
2023-03-12T23:40:25.833Z,984.72
2023-03-12T23:41:25.864Z,984.68
2023-03-12T23:42:25.926Z,984.67
2023-03-12T23:43:25.880Z,984.70
2023-03-12T23:44:25.912Z,984.71
2023-03-12T23:45:25.988Z,984.68
2023-03-12T23:46:25.930Z,984.68
2023-03-12T23:47:26.045Z,984.71
2023-03-12T23:48:25.964Z,984.72
2023-03-12T23:49:26.012Z,984.75
2023-03-12T23:50:26.007Z,984.75
2023-03-12T23:51:25.998Z,984.73
2023-03-12T23:52:26.013Z,984.72
2023-03-12T23:53:25.995Z,984.72
2023-03-12T23:54:26.013Z,984.70
2023-03-12T23:55:26.028Z,984.74
2023-03-12T23:56:26.028Z,984.71
2023-03-12T23:57:26.076Z,984.75
2023-03-12T23:58:26.081Z,984.76
2023-03-12T23:59:26.084Z,984.77
